Venice-Lido Airport

LIPV · 威尼托, 意大利

罗盘
风向 的 风向 350° Venice-Lido Airfield 5/23
风: 6 kt, 2 beaufort

3 kt

5 kt
改变
0 ft 1.000 2.000 3.000 4.000 5.000
CAVOK
METAR LIPZ 172350Z 35006KT CAVOK 14/13 Q1012 NOSIG

METAR Venice-Lido Airfield - LIPV

Venice-Lido Airfield是,意大利中的小机场。 该机场位于纬度45,42894和经度12,38909。 该机场有一条跑道: 5/23. 本场的ICAO机场代码为LIPV。 机场在Milano FIR中。

该航空气象观测是针对Venice Marco Polo Airport在2024年5月18日 01:50, 当地时间进行的。

机场观察

风向为350°,速度为6 kt。

天气为CAVOK。这意味着在5.000 ft或MSA(最低安全高度)以下(以较高者为准)以下没有云。这也意味着没有观测到积雨云或高耸的积云,可见度为10 km 或者更多或更高。此外,不会有雾,降雨或其他重要天气。

温度和风寒是14 °C。 露点为13 °C,相对湿度为94%。 海平面上的气压为1012 hPa (QNH)。

白天

今天,太阳从05:36升起,在20:37降落。 这适用于Venice-Lido Airfield,世界夏令时可能有所不同。 当地时间与世界标准时间之间的时差为+2 小时。 夏令时目前正在进行中。

公司介绍

我们没有关于这个机场的公司信息。

体会

到Vliegles.nl去找飞行课程,跳伞和其他飞行体验。 浏览页面,了解Venice-Lido Airfield附近所有可用的活动。 你也可以使用搜索功能来寻找你所在地附近的特定飞行课程、跳伞或其他飞行体验。

跑道

Id 标题 侧风 逆风 侧风 %
5/23 052°-232° 5 kt 3 kt 88 %

逆风成分最大的方向会被突出显示,并用于横风计算。 这并不一定意味着这个方向在使用。

温度 & 天气

温度 14 °C
露点 13 °C
相对湿度 94%
Kp-index 0 (0-9)

白天

日出
05:37 (3:25)
中午
13:07
日落
20:37

小工具

你想在你的网站上有一个关于Venice-Lido Airfield的当前航空天气(METAR)的小部件吗?

显示HTML代码
报告变更